sensor_id;sensor_type;location;lat;lon;timestamp;P1;durP1;ratioP1;P2;durP2;ratioP2
15555;SDS011;7879;48.660;9.116;2023-03-04T00:01:02;0.40;;;0.40;;
15555;SDS011;7879;48.660;9.116;2023-03-04T00:03:29;0.40;;;0.40;;
15555;SDS011;7879;48.660;9.116;2023-03-04T00:05:56;0.40;;;0.40;;
15555;SDS011;7879;48.660;9.116;2023-03-04T00:08:23;0.40;;;0.40;;
15555;SDS011;7879;48.660;9.116;2023-03-04T00:10:50;0.50;;;0.50;;
15555;SDS011;7879;48.660;9.116;2023-03-04T00:13:17;0.40;;;0.40;;
15555;SDS011;7879;48.660;9.116;2023-03-04T00:15:47;0.40;;;0.40;;
15555;SDS011;7879;48.660;9.116;2023-03-04T00:18:13;0.40;;;0.40;;
15555;SDS011;7879;48.660;9.116;2023-03-04T00:20:41;0.50;;;0.50;;
15555;SDS011;7879;48.660;9.116;2023-03-04T00:23:08;0.60;;;0.60;;
15555;SDS011;7879;48.660;9.116;2023-03-04T00:25:38;0.30;;;0.30;;
15555;SDS011;7879;48.660;9.116;2023-03-04T00:28:08;0.40;;;0.40;;
15555;SDS011;7879;48.660;9.116;2023-03-04T00:30:35;0.45;;;0.45;;
15555;SDS011;7879;48.660;9.116;2023-03-04T00:33:01;0.50;;;0.50;;
15555;SDS011;7879;48.660;9.116;2023-03-04T00:35:28;0.50;;;0.50;;
15555;SDS011;7879;48.660;9.116;2023-03-04T00:37:55;0.30;;;0.30;;
15555;SDS011;7879;48.660;9.116;2023-03-04T00:40:22;0.40;;;0.40;;
15555;SDS011;7879;48.660;9.116;2023-03-04T00:42:49;0.40;;;0.40;;
15555;SDS011;7879;48.660;9.116;2023-03-04T00:45:18;0.50;;;0.50;;
15555;SDS011;7879;48.660;9.116;2023-03-04T00:47:45;0.40;;;0.40;;
15555;SDS011;7879;48.660;9.116;2023-03-04T00:50:11;0.40;;;0.40;;
15555;SDS011;7879;48.660;9.116;2023-03-04T00:52:38;0.40;;;0.40;;
15555;SDS011;7879;48.660;9.116;2023-03-04T00:55:05;0.40;;;0.40;;
15555;SDS011;7879;48.660;9.116;2023-03-04T00:57:33;0.50;;;0.50;;
15555;SDS011;7879;48.660;9.116;2023-03-04T00:59:59;0.32;;;0.32;;
15555;SDS011;7879;48.660;9.116;2023-03-04T01:02:26;0.40;;;0.40;;
15555;SDS011;7879;48.660;9.116;2023-03-04T01:04:53;0.40;;;0.40;;
15555;SDS011;7879;48.660;9.116;2023-03-04T01:07:20;0.50;;;0.50;;
15555;SDS011;7879;48.660;9.116;2023-03-04T01:09:47;0.40;;;0.40;;
15555;SDS011;7879;48.660;9.116;2023-03-04T01:12:13;0.40;;;0.40;;
15555;SDS011;7879;48.660;9.116;2023-03-04T01:14:40;0.40;;;0.40;;
15555;SDS011;7879;48.660;9.116;2023-03-04T01:17:07;0.50;;;0.50;;
15555;SDS011;7879;48.660;9.116;2023-03-04T01:19:34;0.50;;;0.50;;
15555;SDS011;7879;48.660;9.116;2023-03-04T01:22:00;0.40;;;0.40;;
15555;SDS011;7879;48.660;9.116;2023-03-04T01:24:27;0.40;;;0.40;;
15555;SDS011;7879;48.660;9.116;2023-03-04T01:26:55;0.50;;;0.50;;
15555;SDS011;7879;48.660;9.116;2023-03-04T01:29:22;0.50;;;0.50;;
15555;SDS011;7879;48.660;9.116;2023-03-04T01:31:48;0.30;;;0.30;;
15555;SDS011;7879;48.660;9.116;2023-03-04T01:34:15;0.40;;;0.40;;
15555;SDS011;7879;48.660;9.116;2023-03-04T01:36:43;0.40;;;0.40;;
15555;SDS011;7879;48.660;9.116;2023-03-04T01:39:10;0.50;;;0.50;;
15555;SDS011;7879;48.660;9.116;2023-03-04T01:41:36;0.35;;;0.35;;
15555;SDS011;7879;48.660;9.116;2023-03-04T01:44:03;0.40;;;0.40;;
15555;SDS011;7879;48.660;9.116;2023-03-04T01:46:31;0.40;;;0.40;;
15555;SDS011;7879;48.660;9.116;2023-03-04T01:48:58;0.50;;;0.50;;
15555;SDS011;7879;48.660;9.116;2023-03-04T01:51:25;0.40;;;0.40;;
15555;SDS011;7879;48.660;9.116;2023-03-04T01:53:52;0.40;;;0.40;;
15555;SDS011;7879;48.660;9.116;2023-03-04T01:59:18;0.30;;;0.30;;
15555;SDS011;7879;48.660;9.116;2023-03-04T02:01:51;0.40;;;0.40;;
15555;SDS011;7879;48.660;9.116;2023-03-04T02:04:21;0.40;;;0.40;;
15555;SDS011;7879;48.660;9.116;2023-03-04T02:06:51;0.50;;;0.50;;
15555;SDS011;7879;48.660;9.116;2023-03-04T02:09:18;0.30;;;0.30;;
15555;SDS011;7879;48.660;9.116;2023-03-04T02:11:45;0.40;;;0.40;;
15555;SDS011;7879;48.660;9.116;2023-03-04T02:14:14;0.40;;;0.40;;
15555;SDS011;7879;48.660;9.116;2023-03-04T02:16:42;0.50;;;0.50;;
15555;SDS011;7879;48.660;9.116;2023-03-04T02:19:12;0.40;;;0.40;;
15555;SDS011;7879;48.660;9.116;2023-03-04T02:22:01;0.43;;;0.43;;
15555;SDS011;7879;48.660;9.116;2023-03-04T02:27:01;0.50;;;0.50;;
15555;SDS011;7879;48.660;9.116;2023-03-04T02:29:28;0.50;;;0.50;;
15555;SDS011;7879;48.660;9.116;2023-03-04T02:31:55;0.40;;;0.40;;
15555;SDS011;7879;48.660;9.116;2023-03-04T02:34:34;0.40;;;0.40;;
15555;SDS011;7879;48.660;9.116;2023-03-04T02:37:02;0.40;;;0.40;;
15555;SDS011;7879;48.660;9.116;2023-03-04T02:39:33;0.50;;;0.50;;
15555;SDS011;7879;48.660;9.116;2023-03-04T02:42:04;0.40;;;0.40;;
15555;SDS011;7879;48.660;9.116;2023-03-04T02:44:32;0.40;;;0.40;;
15555;SDS011;7879;48.660;9.116;2023-03-04T02:47:04;0.40;;;0.40;;
15555;SDS011;7879;48.660;9.116;2023-03-04T02:49:35;0.40;;;0.40;;
15555;SDS011;7879;48.660;9.116;2023-03-04T02:54:38;0.40;;;0.40;;
15555;SDS011;7879;48.660;9.116;2023-03-04T02:57:06;0.40;;;0.40;;
15555;SDS011;7879;48.660;9.116;2023-03-04T02:59:35;0.40;;;0.40;;
15555;SDS011;7879;48.660;9.116;2023-03-04T03:02:03;0.50;;;0.50;;
15555;SDS011;7879;48.660;9.116;2023-03-04T03:04:30;0.32;;;0.32;;
15555;SDS011;7879;48.660;9.116;2023-03-04T03:06:57;0.40;;;0.40;;
15555;SDS011;7879;48.660;9.116;2023-03-04T03:09:24;0.50;;;0.50;;
15555;SDS011;7879;48.660;9.116;2023-03-04T03:11:51;0.50;;;0.50;;
15555;SDS011;7879;48.660;9.116;2023-03-04T03:14:17;0.30;;;0.30;;
15555;SDS011;7879;48.660;9.116;2023-03-04T03:16:44;0.40;;;0.40;;
15555;SDS011;7879;48.660;9.116;2023-03-04T03:19:11;0.50;;;0.50;;
15555;SDS011;7879;48.660;9.116;2023-03-04T03:21:37;0.60;;;0.60;;
15555;SDS011;7879;48.660;9.116;2023-03-04T03:24:04;0.40;;;0.40;;
15555;SDS011;7879;48.660;9.116;2023-03-04T03:26:31;0.40;;;0.40;;
15555;SDS011;7879;48.660;9.116;2023-03-04T03:28:58;0.40;;;0.40;;
15555;SDS011;7879;48.660;9.116;2023-03-04T03:31:24;0.50;;;0.50;;
15555;SDS011;7879;48.660;9.116;2023-03-04T03:33:51;0.30;;;0.30;;
15555;SDS011;7879;48.660;9.116;2023-03-04T03:36:18;0.40;;;0.40;;
15555;SDS011;7879;48.660;9.116;2023-03-04T03:38:45;0.50;;;0.50;;
15555;SDS011;7879;48.660;9.116;2023-03-04T03:41:11;0.40;;;0.40;;
15555;SDS011;7879;48.660;9.116;2023-03-04T03:43:38;0.40;;;0.40;;
15555;SDS011;7879;48.660;9.116;2023-03-04T03:46:05;0.50;;;0.50;;
15555;SDS011;7879;48.660;9.116;2023-03-04T03:48:31;0.50;;;0.50;;
15555;SDS011;7879;48.660;9.116;2023-03-04T03:50:58;0.40;;;0.40;;
15555;SDS011;7879;48.660;9.116;2023-03-04T03:53:25;0.40;;;0.40;;
15555;SDS011;7879;48.660;9.116;2023-03-04T03:55:51;0.50;;;0.50;;
15555;SDS011;7879;48.660;9.116;2023-03-04T03:58:18;0.30;;;0.30;;
15555;SDS011;7879;48.660;9.116;2023-03-04T04:00:45;0.47;;;0.47;;
15555;SDS011;7879;48.660;9.116;2023-03-04T04:03:13;0.50;;;0.50;;
15555;SDS011;7879;48.660;9.116;2023-03-04T04:05:41;0.50;;;0.50;;
15555;SDS011;7879;48.660;9.116;2023-03-04T04:08:14;0.40;;;0.40;;
15555;SDS011;7879;48.660;9.116;2023-03-04T04:10:42;0.40;;;0.40;;
15555;SDS011;7879;48.660;9.116;2023-03-04T04:13:09;0.50;;;0.50;;
15555;SDS011;7879;48.660;9.116;2023-03-04T04:15:36;0.38;;;0.38;;
15555;SDS011;7879;48.660;9.116;2023-03-04T04:18:04;0.40;;;0.40;;
15555;SDS011;7879;48.660;9.116;2023-03-04T04:20:32;0.45;;;0.45;;
15555;SDS011;7879;48.660;9.116;2023-03-04T04:22:59;0.52;;;0.52;;
15555;SDS011;7879;48.660;9.116;2023-03-04T04:25:26;0.40;;;0.40;;
15555;SDS011;7879;48.660;9.116;2023-03-04T04:27:53;0.50;;;0.50;;
15555;SDS011;7879;48.660;9.116;2023-03-04T04:30:20;0.50;;;0.50;;
15555;SDS011;7879;48.660;9.116;2023-03-04T04:32:47;0.40;;;0.40;;
15555;SDS011;7879;48.660;9.116;2023-03-04T04:35:13;0.40;;;0.40;;
15555;SDS011;7879;48.660;9.116;2023-03-04T04:37:40;0.50;;;0.50;;
15555;SDS011;7879;48.660;9.116;2023-03-04T04:40:07;0.55;;;0.55;;
15555;SDS011;7879;48.660;9.116;2023-03-04T04:42:34;0.40;;;0.40;;
15555;SDS011;7879;48.660;9.116;2023-03-04T04:45:01;0.50;;;0.50;;
15555;SDS011;7879;48.660;9.116;2023-03-04T04:47:28;0.50;;;0.50;;
15555;SDS011;7879;48.660;9.116;2023-03-04T04:49:55;0.40;;;0.40;;
15555;SDS011;7879;48.660;9.116;2023-03-04T04:52:22;0.40;;;0.40;;
15555;SDS011;7879;48.660;9.116;2023-03-04T04:54:49;0.50;;;0.50;;
15555;SDS011;7879;48.660;9.116;2023-03-04T04:57:15;0.40;;;0.40;;
15555;SDS011;7879;48.660;9.116;2023-03-04T04:59:42;0.40;;;0.40;;
15555;SDS011;7879;48.660;9.116;2023-03-04T05:02:09;0.50;;;0.50;;
15555;SDS011;7879;48.660;9.116;2023-03-04T05:04:35;0.55;;;0.55;;
15555;SDS011;7879;48.660;9.116;2023-03-04T05:07:02;0.40;;;0.40;;
15555;SDS011;7879;48.660;9.116;2023-03-04T05:09:29;0.50;;;0.50;;
15555;SDS011;7879;48.660;9.116;2023-03-04T05:11:56;0.50;;;0.50;;
15555;SDS011;7879;48.660;9.116;2023-03-04T05:14:22;0.30;;;0.30;;
15555;SDS011;7879;48.660;9.116;2023-03-04T05:16:49;0.43;;;0.43;;
15555;SDS011;7879;48.660;9.116;2023-03-04T05:19:18;0.50;;;0.50;;
15555;SDS011;7879;48.660;9.116;2023-03-04T05:21:46;0.40;;;0.40;;
15555;SDS011;7879;48.660;9.116;2023-03-04T05:24:13;0.40;;;0.40;;
15555;SDS011;7879;48.660;9.116;2023-03-04T05:26:40;0.40;;;0.40;;
15555;SDS011;7879;48.660;9.116;2023-03-04T05:29:06;0.50;;;0.50;;
15555;SDS011;7879;48.660;9.116;2023-03-04T05:31:33;0.40;;;0.40;;
15555;SDS011;7879;48.660;9.116;2023-03-04T05:34:00;0.50;;;0.50;;
15555;SDS011;7879;48.660;9.116;2023-03-04T05:36:27;0.50;;;0.50;;
15555;SDS011;7879;48.660;9.116;2023-03-04T05:38:54;0.40;;;0.40;;
15555;SDS011;7879;48.660;9.116;2023-03-04T05:41:20;0.45;;;0.45;;
15555;SDS011;7879;48.660;9.116;2023-03-04T05:43:48;0.60;;;0.60;;
15555;SDS011;7879;48.660;9.116;2023-03-04T05:46:16;0.40;;;0.40;;
15555;SDS011;7879;48.660;9.116;2023-03-04T05:48:49;0.40;;;0.40;;
15555;SDS011;7879;48.660;9.116;2023-03-04T05:51:20;0.50;;;0.50;;
15555;SDS011;7879;48.660;9.116;2023-03-04T05:53:47;0.40;;;0.40;;
15555;SDS011;7879;48.660;9.116;2023-03-04T05:56:15;0.40;;;0.40;;
15555;SDS011;7879;48.660;9.116;2023-03-04T05:58:43;0.50;;;0.50;;
15555;SDS011;7879;48.660;9.116;2023-03-04T06:01:12;0.50;;;0.50;;
15555;SDS011;7879;48.660;9.116;2023-03-04T06:03:39;0.40;;;0.40;;
15555;SDS011;7879;48.660;9.116;2023-03-04T06:06:09;0.50;;;0.50;;
15555;SDS011;7879;48.660;9.116;2023-03-04T06:08:36;0.60;;;0.60;;
15555;SDS011;7879;48.660;9.116;2023-03-04T06:11:03;0.40;;;0.40;;
15555;SDS011;7879;48.660;9.116;2023-03-04T06:13:30;0.50;;;0.50;;
15555;SDS011;7879;48.660;9.116;2023-03-04T06:15:58;0.40;;;0.40;;
15555;SDS011;7879;48.660;9.116;2023-03-04T06:18:25;0.47;;;0.47;;
15555;SDS011;7879;48.660;9.116;2023-03-04T06:20:56;0.50;;;0.50;;
15555;SDS011;7879;48.660;9.116;2023-03-04T06:23:24;0.40;;;0.40;;
15555;SDS011;7879;48.660;9.116;2023-03-04T06:25:52;0.40;;;0.40;;
15555;SDS011;7879;48.660;9.116;2023-03-04T06:28:20;0.50;;;0.50;;
15555;SDS011;7879;48.660;9.116;2023-03-04T06:30:47;0.52;;;0.52;;
15555;SDS011;7879;48.660;9.116;2023-03-04T06:33:17;0.40;;;0.40;;
15555;SDS011;7879;48.660;9.116;2023-03-04T06:35:45;0.40;;;0.40;;
15555;SDS011;7879;48.660;9.116;2023-03-04T06:38:11;0.50;;;0.50;;
15555;SDS011;7879;48.660;9.116;2023-03-04T06:40:38;0.40;;;0.40;;
15555;SDS011;7879;48.660;9.116;2023-03-04T06:43:05;0.40;;;0.40;;
15555;SDS011;7879;48.660;9.116;2023-03-04T06:45:32;0.40;;;0.40;;
15555;SDS011;7879;48.660;9.116;2023-03-04T06:47:58;0.57;;;0.57;;
15555;SDS011;7879;48.660;9.116;2023-03-04T06:50:25;0.40;;;0.40;;
15555;SDS011;7879;48.660;9.116;2023-03-04T06:52:52;0.45;;;0.45;;
15555;SDS011;7879;48.660;9.116;2023-03-04T06:55:22;0.50;;;0.50;;
15555;SDS011;7879;48.660;9.116;2023-03-04T06:57:49;0.30;;;0.30;;
15555;SDS011;7879;48.660;9.116;2023-03-04T07:00:17;0.40;;;0.40;;
15555;SDS011;7879;48.660;9.116;2023-03-04T07:02:44;0.40;;;0.40;;
15555;SDS011;7879;48.660;9.116;2023-03-04T07:05:11;0.50;;;0.50;;
15555;SDS011;7879;48.660;9.116;2023-03-04T07:07:38;0.30;;;0.30;;
15555;SDS011;7879;48.660;9.116;2023-03-04T07:10:04;0.40;;;0.40;;
15555;SDS011;7879;48.660;9.116;2023-03-04T07:12:32;0.40;;;0.40;;
15555;SDS011;7879;48.660;9.116;2023-03-04T07:14:59;0.50;;;0.50;;
15555;SDS011;7879;48.660;9.116;2023-03-04T07:17:25;0.40;;;0.40;;
15555;SDS011;7879;48.660;9.116;2023-03-04T07:19:52;0.40;;;0.40;;
15555;SDS011;7879;48.660;9.116;2023-03-04T07:22:19;0.40;;;0.40;;
15555;SDS011;7879;48.660;9.116;2023-03-04T07:24:45;0.40;;;0.40;;
15555;SDS011;7879;48.660;9.116;2023-03-04T07:27:12;0.50;;;0.50;;
15555;SDS011;7879;48.660;9.116;2023-03-04T07:29:39;0.30;;;0.30;;
15555;SDS011;7879;48.660;9.116;2023-03-04T07:32:06;0.30;;;0.30;;
15555;SDS011;7879;48.660;9.116;2023-03-04T07:34:34;0.40;;;0.40;;
15555;SDS011;7879;48.660;9.116;2023-03-04T07:37:01;0.40;;;0.40;;
15555;SDS011;7879;48.660;9.116;2023-03-04T07:39:29;0.40;;;0.40;;
15555;SDS011;7879;48.660;9.116;2023-03-04T07:41:56;0.50;;;0.50;;
15555;SDS011;7879;48.660;9.116;2023-03-04T07:44:22;0.40;;;0.40;;
15555;SDS011;7879;48.660;9.116;2023-03-04T07:46:49;0.30;;;0.30;;
15555;SDS011;7879;48.660;9.116;2023-03-04T07:49:16;0.30;;;0.30;;
15555;SDS011;7879;48.660;9.116;2023-03-04T07:51:43;0.30;;;0.30;;
15555;SDS011;7879;48.660;9.116;2023-03-04T07:54:10;0.40;;;0.40;;
15555;SDS011;7879;48.660;9.116;2023-03-04T07:56:36;0.40;;;0.40;;
15555;SDS011;7879;48.660;9.116;2023-03-04T07:59:04;0.40;;;0.40;;
15555;SDS011;7879;48.660;9.116;2023-03-04T08:01:34;0.40;;;0.40;;
15555;SDS011;7879;48.660;9.116;2023-03-04T08:04:03;0.40;;;0.40;;
15555;SDS011;7879;48.660;9.116;2023-03-04T08:06:31;0.40;;;0.40;;
15555;SDS011;7879;48.660;9.116;2023-03-04T08:08:59;0.50;;;0.50;;
15555;SDS011;7879;48.660;9.116;2023-03-04T08:11:28;0.40;;;0.40;;
15555;SDS011;7879;48.660;9.116;2023-03-04T08:13:56;0.32;;;0.32;;
15555;SDS011;7879;48.660;9.116;2023-03-04T08:16:24;0.30;;;0.30;;
15555;SDS011;7879;48.660;9.116;2023-03-04T08:18:52;0.30;;;0.30;;
15555;SDS011;7879;48.660;9.116;2023-03-04T08:21:21;0.30;;;0.30;;
15555;SDS011;7879;48.660;9.116;2023-03-04T08:23:49;0.30;;;0.30;;
15555;SDS011;7879;48.660;9.116;2023-03-04T08:26:21;0.30;;;0.30;;
15555;SDS011;7879;48.660;9.116;2023-03-04T08:28:50;0.30;;;0.30;;
15555;SDS011;7879;48.660;9.116;2023-03-04T08:31:17;0.30;;;0.30;;
15555;SDS011;7879;48.660;9.116;2023-03-04T08:33:45;0.40;;;0.40;;
15555;SDS011;7879;48.660;9.116;2023-03-04T08:36:13;0.40;;;0.40;;
15555;SDS011;7879;48.660;9.116;2023-03-04T08:38:40;0.40;;;0.40;;
15555;SDS011;7879;48.660;9.116;2023-03-04T08:41:08;0.40;;;0.40;;
15555;SDS011;7879;48.660;9.116;2023-03-04T08:43:35;0.40;;;0.40;;
15555;SDS011;7879;48.660;9.116;2023-03-04T08:46:02;0.45;;;0.45;;
15555;SDS011;7879;48.660;9.116;2023-03-04T08:48:29;0.40;;;0.40;;
15555;SDS011;7879;48.660;9.116;2023-03-04T08:50:56;0.30;;;0.30;;
15555;SDS011;7879;48.660;9.116;2023-03-04T08:53:23;0.30;;;0.30;;
15555;SDS011;7879;48.660;9.116;2023-03-04T08:55:50;0.40;;;0.40;;
15555;SDS011;7879;48.660;9.116;2023-03-04T08:58:18;0.40;;;0.40;;
15555;SDS011;7879;48.660;9.116;2023-03-04T09:00:45;0.40;;;0.40;;
15555;SDS011;7879;48.660;9.116;2023-03-04T09:03:14;0.38;;;0.38;;
15555;SDS011;7879;48.660;9.116;2023-03-04T09:05:43;0.30;;;0.30;;
15555;SDS011;7879;48.660;9.116;2023-03-04T09:08:10;0.30;;;0.30;;
15555;SDS011;7879;48.660;9.116;2023-03-04T09:10:37;0.30;;;0.30;;
15555;SDS011;7879;48.660;9.116;2023-03-04T09:13:04;0.40;;;0.40;;
15555;SDS011;7879;48.660;9.116;2023-03-04T09:15:32;0.30;;;0.30;;
15555;SDS011;7879;48.660;9.116;2023-03-04T09:18:01;0.32;;;0.32;;
15555;SDS011;7879;48.660;9.116;2023-03-04T09:20:29;0.30;;;0.30;;
15555;SDS011;7879;48.660;9.116;2023-03-04T09:22:57;0.30;;;0.30;;
15555;SDS011;7879;48.660;9.116;2023-03-04T09:25:23;0.30;;;0.30;;
15555;SDS011;7879;48.660;9.116;2023-03-04T09:27:50;0.30;;;0.30;;
15555;SDS011;7879;48.660;9.116;2023-03-04T09:30:17;0.30;;;0.30;;
15555;SDS011;7879;48.660;9.116;2023-03-04T09:32:44;0.30;;;0.30;;
15555;SDS011;7879;48.660;9.116;2023-03-04T09:35:11;0.30;;;0.30;;
15555;SDS011;7879;48.660;9.116;2023-03-04T09:37:37;0.30;;;0.30;;
15555;SDS011;7879;48.660;9.116;2023-03-04T09:40:07;0.30;;;0.30;;
15555;SDS011;7879;48.660;9.116;2023-03-04T09:42:37;0.38;;;0.38;;
15555;SDS011;7879;48.660;9.116;2023-03-04T09:45:15;0.40;;;0.40;;
15555;SDS011;7879;48.660;9.116;2023-03-04T09:47:45;0.40;;;0.40;;
15555;SDS011;7879;48.660;9.116;2023-03-04T09:50:14;0.30;;;0.30;;
15555;SDS011;7879;48.660;9.116;2023-03-04T10:03:46;0.40;;;0.40;;
15555;SDS011;7879;48.660;9.116;2023-03-04T10:06:18;0.40;;;0.40;;
15555;SDS011;7879;48.660;9.116;2023-03-04T10:16:43;0.30;;;0.30;;
15555;SDS011;7879;48.660;9.116;2023-03-04T10:21:50;0.30;;;0.30;;
15555;SDS011;7879;48.660;9.116;2023-03-04T10:24:18;0.30;;;0.30;;
15555;SDS011;7879;48.660;9.116;2023-03-04T10:26:49;0.30;;;0.30;;
15555;SDS011;7879;48.660;9.116;2023-03-04T10:29:20;0.30;;;0.30;;
15555;SDS011;7879;48.660;9.116;2023-03-04T10:31:49;0.25;;;0.25;;
15555;SDS011;7879;48.660;9.116;2023-03-04T10:34:17;0.22;;;0.22;;
15555;SDS011;7879;48.660;9.116;2023-03-04T10:36:46;0.30;;;0.30;;
15555;SDS011;7879;48.660;9.116;2023-03-04T10:39:21;0.40;;;0.40;;
15555;SDS011;7879;48.660;9.116;2023-03-04T10:42:03;0.35;;;0.35;;
15555;SDS011;7879;48.660;9.116;2023-03-04T10:44:33;0.30;;;0.30;;
15555;SDS011;7879;48.660;9.116;2023-03-04T10:47:00;0.30;;;0.30;;
15555;SDS011;7879;48.660;9.116;2023-03-04T10:49:28;0.30;;;0.30;;
15555;SDS011;7879;48.660;9.116;2023-03-04T10:57:18;0.30;;;0.30;;
15555;SDS011;7879;48.660;9.116;2023-03-04T10:59:54;0.30;;;0.30;;
15555;SDS011;7879;48.660;9.116;2023-03-04T11:02:27;0.30;;;0.30;;
15555;SDS011;7879;48.660;9.116;2023-03-04T11:10:40;0.30;;;0.30;;
15555;SDS011;7879;48.660;9.116;2023-03-04T11:13:12;0.30;;;0.30;;
15555;SDS011;7879;48.660;9.116;2023-03-04T11:15:57;0.20;;;0.20;;
15555;SDS011;7879;48.660;9.116;2023-03-04T11:21:11;0.20;;;0.20;;
15555;SDS011;7879;48.660;9.116;2023-03-04T11:26:15;0.30;;;0.30;;
15555;SDS011;7879;48.660;9.116;2023-03-04T11:28:53;0.20;;;0.20;;
15555;SDS011;7879;48.660;9.116;2023-03-04T11:31:52;0.30;;;0.30;;
15555;SDS011;7879;48.660;9.116;2023-03-04T11:34:42;0.20;;;0.20;;
15555;SDS011;7879;48.660;9.116;2023-03-04T11:37:21;0.20;;;0.20;;
15555;SDS011;7879;48.660;9.116;2023-03-04T11:43:06;0.20;;;0.20;;
15555;SDS011;7879;48.660;9.116;2023-03-04T11:50:53;0.22;;;0.22;;
15555;SDS011;7879;48.660;9.116;2023-03-04T11:56:29;0.20;;;0.20;;
15555;SDS011;7879;48.660;9.116;2023-03-04T12:02:12;0.17;;;0.17;;
15555;SDS011;7879;48.660;9.116;2023-03-04T12:04:51;0.10;;;0.10;;
15555;SDS011;7879;48.660;9.116;2023-03-04T12:10:24;0.20;;;0.20;;
15555;SDS011;7879;48.660;9.116;2023-03-04T12:13:21;0.20;;;0.20;;
15555;SDS011;7879;48.660;9.116;2023-03-04T12:16:13;0.20;;;0.20;;
15555;SDS011;7879;48.660;9.116;2023-03-04T12:27:21;0.25;;;0.25;;
15555;SDS011;7879;48.660;9.116;2023-03-04T12:33:47;0.20;;;0.20;;
15555;SDS011;7879;48.660;9.116;2023-03-04T12:44:50;0.20;;;0.20;;
15555;SDS011;7879;48.660;9.116;2023-03-04T12:47:51;0.30;;;0.30;;
15555;SDS011;7879;48.660;9.116;2023-03-04T12:53:09;0.30;;;0.30;;
15555;SDS011;7879;48.660;9.116;2023-03-04T12:55:44;0.20;;;0.20;;
15555;SDS011;7879;48.660;9.116;2023-03-04T12:58:17;0.30;;;0.30;;
15555;SDS011;7879;48.660;9.116;2023-03-04T13:06:17;0.20;;;0.20;;
15555;SDS011;7879;48.660;9.116;2023-03-04T13:11:49;0.22;;;0.22;;
15555;SDS011;7879;48.660;9.116;2023-03-04T13:16:47;0.20;;;0.20;;
15555;SDS011;7879;48.660;9.116;2023-03-04T13:36:00;0.30;;;0.30;;
15555;SDS011;7879;48.660;9.116;2023-03-04T13:51:18;0.28;;;0.28;;
15555;SDS011;7879;48.660;9.116;2023-03-04T14:01:46;0.23;;;0.23;;
15555;SDS011;7879;48.660;9.116;2023-03-04T14:06:59;0.30;;;0.30;;
15555;SDS011;7879;48.660;9.116;2023-03-04T14:09:29;0.20;;;0.20;;
15555;SDS011;7879;48.660;9.116;2023-03-04T14:11:58;0.20;;;0.20;;
15555;SDS011;7879;48.660;9.116;2023-03-04T14:14:38;0.30;;;0.30;;
15555;SDS011;7879;48.660;9.116;2023-03-04T14:17:18;0.20;;;0.20;;
15555;SDS011;7879;48.660;9.116;2023-03-04T14:19:49;0.20;;;0.20;;
15555;SDS011;7879;48.660;9.116;2023-03-04T14:22:19;0.30;;;0.30;;
15555;SDS011;7879;48.660;9.116;2023-03-04T14:25:05;0.30;;;0.30;;
15555;SDS011;7879;48.660;9.116;2023-03-04T14:28:00;0.20;;;0.20;;
15555;SDS011;7879;48.660;9.116;2023-03-04T14:30:35;0.30;;;0.30;;
15555;SDS011;7879;48.660;9.116;2023-03-04T14:33:16;0.30;;;0.30;;
15555;SDS011;7879;48.660;9.116;2023-03-04T14:35:58;0.20;;;0.20;;
15555;SDS011;7879;48.660;9.116;2023-03-04T14:38:27;0.30;;;0.30;;
15555;SDS011;7879;48.660;9.116;2023-03-04T14:43:36;0.20;;;0.20;;
15555;SDS011;7879;48.660;9.116;2023-03-04T14:46:07;0.20;;;0.20;;
15555;SDS011;7879;48.660;9.116;2023-03-04T14:48:39;0.30;;;0.30;;
15555;SDS011;7879;48.660;9.116;2023-03-04T14:51:59;0.30;;;0.30;;
15555;SDS011;7879;48.660;9.116;2023-03-04T14:54:30;0.20;;;0.20;;
15555;SDS011;7879;48.660;9.116;2023-03-04T14:59:46;0.30;;;0.30;;
15555;SDS011;7879;48.660;9.116;2023-03-04T15:02:18;0.30;;;0.30;;
15555;SDS011;7879;48.660;9.116;2023-03-04T15:04:57;0.30;;;0.30;;
15555;SDS011;7879;48.660;9.116;2023-03-04T15:07:29;0.20;;;0.20;;
15555;SDS011;7879;48.660;9.116;2023-03-04T15:09:59;0.20;;;0.20;;
15555;SDS011;7879;48.660;9.116;2023-03-04T15:12:30;0.30;;;0.30;;
15555;SDS011;7879;48.660;9.116;2023-03-04T15:15:28;0.30;;;0.30;;
15555;SDS011;7879;48.660;9.116;2023-03-04T15:18:25;0.30;;;0.30;;
15555;SDS011;7879;48.660;9.116;2023-03-04T15:24:04;0.30;;;0.30;;
15555;SDS011;7879;48.660;9.116;2023-03-04T15:26:38;0.30;;;0.30;;
15555;SDS011;7879;48.660;9.116;2023-03-04T15:29:14;0.30;;;0.30;;
15555;SDS011;7879;48.660;9.116;2023-03-04T15:31:47;0.30;;;0.30;;
15555;SDS011;7879;48.660;9.116;2023-03-04T15:34:18;0.30;;;0.30;;
15555;SDS011;7879;48.660;9.116;2023-03-04T15:36:47;0.30;;;0.30;;
15555;SDS011;7879;48.660;9.116;2023-03-04T15:39:23;0.30;;;0.30;;
15555;SDS011;7879;48.660;9.116;2023-03-04T15:41:57;0.35;;;0.35;;
15555;SDS011;7879;48.660;9.116;2023-03-04T15:44:31;0.30;;;0.30;;
15555;SDS011;7879;48.660;9.116;2023-03-04T15:47:01;0.30;;;0.30;;
15555;SDS011;7879;48.660;9.116;2023-03-04T15:49:33;0.30;;;0.30;;
15555;SDS011;7879;48.660;9.116;2023-03-04T15:52:04;0.30;;;0.30;;
15555;SDS011;7879;48.660;9.116;2023-03-04T15:54:34;0.30;;;0.30;;
15555;SDS011;7879;48.660;9.116;2023-03-04T15:57:23;0.30;;;0.30;;
15555;SDS011;7879;48.660;9.116;2023-03-04T15:59:51;0.20;;;0.20;;
15555;SDS011;7879;48.660;9.116;2023-03-04T16:02:22;0.20;;;0.20;;
15555;SDS011;7879;48.660;9.116;2023-03-04T16:04:55;0.30;;;0.30;;
15555;SDS011;7879;48.660;9.116;2023-03-04T16:07:23;0.30;;;0.30;;
15555;SDS011;7879;48.660;9.116;2023-03-04T16:09:54;0.30;;;0.30;;
15555;SDS011;7879;48.660;9.116;2023-03-04T16:12:28;0.40;;;0.40;;
15555;SDS011;7879;48.660;9.116;2023-03-04T16:14:55;0.40;;;0.40;;
15555;SDS011;7879;48.660;9.116;2023-03-04T16:17:25;0.30;;;0.30;;
15555;SDS011;7879;48.660;9.116;2023-03-04T16:19:52;0.40;;;0.40;;
15555;SDS011;7879;48.660;9.116;2023-03-04T16:22:24;0.40;;;0.40;;
15555;SDS011;7879;48.660;9.116;2023-03-04T16:24:55;0.40;;;0.40;;
15555;SDS011;7879;48.660;9.116;2023-03-04T16:27:22;0.40;;;0.40;;
15555;SDS011;7879;48.660;9.116;2023-03-04T16:29:51;0.30;;;0.30;;
15555;SDS011;7879;48.660;9.116;2023-03-04T16:32:20;0.30;;;0.30;;
15555;SDS011;7879;48.660;9.116;2023-03-04T16:34:49;0.22;;;0.22;;
15555;SDS011;7879;48.660;9.116;2023-03-04T16:37:18;0.22;;;0.22;;
15555;SDS011;7879;48.660;9.116;2023-03-04T16:39:49;0.30;;;0.30;;
15555;SDS011;7879;48.660;9.116;2023-03-04T16:42:16;0.30;;;0.30;;
15555;SDS011;7879;48.660;9.116;2023-03-04T16:44:45;0.40;;;0.40;;
15555;SDS011;7879;48.660;9.116;2023-03-04T16:47:14;0.40;;;0.40;;
15555;SDS011;7879;48.660;9.116;2023-03-04T16:49:41;0.30;;;0.30;;
15555;SDS011;7879;48.660;9.116;2023-03-04T16:52:21;0.30;;;0.30;;
15555;SDS011;7879;48.660;9.116;2023-03-04T16:54:51;0.30;;;0.30;;
15555;SDS011;7879;48.660;9.116;2023-03-04T16:57:18;0.30;;;0.30;;
15555;SDS011;7879;48.660;9.116;2023-03-04T16:59:45;0.30;;;0.30;;
15555;SDS011;7879;48.660;9.116;2023-03-04T17:02:16;0.30;;;0.30;;
15555;SDS011;7879;48.660;9.116;2023-03-04T17:04:45;0.30;;;0.30;;
15555;SDS011;7879;48.660;9.116;2023-03-04T17:07:15;0.30;;;0.30;;
15555;SDS011;7879;48.660;9.116;2023-03-04T17:09:44;0.30;;;0.30;;
15555;SDS011;7879;48.660;9.116;2023-03-04T17:12:16;0.30;;;0.30;;
15555;SDS011;7879;48.660;9.116;2023-03-04T17:14:43;0.30;;;0.30;;
15555;SDS011;7879;48.660;9.116;2023-03-04T17:17:10;0.20;;;0.20;;
15555;SDS011;7879;48.660;9.116;2023-03-04T17:19:43;0.30;;;0.30;;
15555;SDS011;7879;48.660;9.116;2023-03-04T17:22:10;0.30;;;0.30;;
15555;SDS011;7879;48.660;9.116;2023-03-04T17:24:37;0.30;;;0.30;;
15555;SDS011;7879;48.660;9.116;2023-03-04T17:27:06;0.30;;;0.30;;
15555;SDS011;7879;48.660;9.116;2023-03-04T17:29:37;0.30;;;0.30;;
15555;SDS011;7879;48.660;9.116;2023-03-04T17:32:06;0.40;;;0.40;;
15555;SDS011;7879;48.660;9.116;2023-03-04T17:34:33;0.40;;;0.40;;
15555;SDS011;7879;48.660;9.116;2023-03-04T17:37:01;0.40;;;0.40;;
15555;SDS011;7879;48.660;9.116;2023-03-04T17:39:28;0.40;;;0.40;;
15555;SDS011;7879;48.660;9.116;2023-03-04T17:41:55;0.40;;;0.40;;